Time;durP1;ratioP1;P1;durP2;ratioP2;P2;SDS_P1;SDS_P2;PMS_P1;PMS_P2;Temp;Humidity;BMP_temperature;BMP_pressure;BME280_temperature;BME280_humidity;BME280_pressure;Samples;Min_cycle;Max_cycle;Signal;HPM_P1;HPM_P2
2021/08/25 00:02:15;;;;;;;12.38;2.20;;;;;;;;;;5053618;28;20075;-75
2021/08/25 00:04:41;;;;;;;5.80;2.42;;;;;;;;;;5054130;28;20048;-75
2021/08/25 00:07:07;;;;;;;7.75;2.42;;;;;;;;;;5053870;28;20028;-76
2021/08/25 00:09:36;;;;;;;5.78;2.53;;;;;;;;;;5053999;28;20036;-75
2021/08/25 00:12:02;;;;;;;7.50;2.65;;;;;;;;;;5053838;28;20176;-76
2021/08/25 00:14:28;;;;;;;5.55;2.47;;;;;;;;;;5053927;28;20100;-75
2021/08/25 00:16:54;;;;;;;7.03;2.53;;;;;;;;;;5054125;28;20037;-76
2021/08/25 00:19:19;;;;;;;7.50;2.60;;;;;;;;;;5053510;28;20044;-75
2021/08/25 00:21:44;;;;;;;4.45;2.15;;;;;;;;;;5053827;28;20059;-75
2021/08/25 00:24:09;;;;;;;6.95;2.83;;;;;;;;;;5053556;28;20060;-75
2021/08/25 00:26:35;;;;;;;7.38;2.72;;;;;;;;;;5052912;28;20025;-75
2021/08/25 00:29:00;;;;;;;4.68;2.60;;;;;;;;;;5053630;28;20024;-75
2021/08/25 00:31:25;;;;;;;5.85;2.95;;;;;;;;;;5053307;28;20128;-76
2021/08/25 00:33:50;;;;;;;6.35;2.40;;;;;;;;;;5053706;28;20404;-75
2021/08/25 00:36:16;;;;;;;5.15;2.20;;;;;;;;;;5053599;28;20017;-75
2021/08/25 00:38:41;;;;;;;9.57;2.90;;;;;;;;;;5053089;28;20485;-75
2021/08/25 00:41:06;;;;;;;8.68;2.97;;;;;;;;;;5053138;28;20048;-75
2021/08/25 00:43:31;;;;;;;5.05;2.28;;;;;;;;;;5053561;28;20027;-75
2021/08/25 00:45:57;;;;;;;4.25;2.50;;;;;;;;;;5053358;28;20118;-76
2021/08/25 00:48:22;;;;;;;6.43;2.83;;;;;;;;;;5053070;28;20047;-75
2021/08/25 00:50:50;;;;;;;6.82;3.05;;;;;;;;;;5053109;28;20049;-75
2021/08/25 00:53:18;;;;;;;6.63;2.45;;;;;;;;;;5053249;28;20491;-76
2021/08/25 00:55:44;;;;;;;7.10;2.50;;;;;;;;;;5053011;28;20036;-75
2021/08/25 00:58:09;;;;;;;3.85;2.28;;;;;;;;;;5053177;28;20018;-76
2021/08/25 01:00:37;;;;;;;5.28;2.47;;;;;;;;;;5053241;28;20087;-76
2021/08/25 01:03:02;;;;;;;5.43;2.03;;;;;;;;;;5053027;28;20045;-76
2021/08/25 01:05:29;;;;;;;3.35;1.85;;;;;;;;;;5053001;28;20029;-75
2021/08/25 01:07:56;;;;;;;5.72;2.22;;;;;;;;;;5052986;28;20021;-76
2021/08/25 01:10:21;;;;;;;2.95;1.80;;;;;;;;;;5053187;28;20041;-75
2021/08/25 01:12:46;;;;;;;6.20;2.13;;;;;;;;;;5053157;28;20025;-76
2021/08/25 01:15:12;;;;;;;3.25;1.70;;;;;;;;;;5053004;28;20119;-75
2021/08/25 01:17:37;;;;;;;5.78;2.15;;;;;;;;;;5052904;28;20090;-76
2021/08/25 01:20:10;;;;;;;3.45;1.80;;;;;;;;;;5052713;28;20037;-76
2021/08/25 01:22:36;;;;;;;4.60;1.67;;;;;;;;;;5053213;28;20029;-76
2021/08/25 01:25:03;;;;;;;4.55;1.70;;;;;;;;;;5053012;28;20040;-77
2021/08/25 01:27:29;;;;;;;4.03;1.50;;;;;;;;;;5052821;28;20462;-76
2021/08/25 01:29:56;;;;;;;12.85;1.92;;;;;;;;;;5052996;28;20112;-76
2021/08/25 01:32:21;;;;;;;4.25;1.63;;;;;;;;;;5052563;28;20071;-76
2021/08/25 01:34:50;;;;;;;3.72;1.50;;;;;;;;;;5053025;28;20441;-76
2021/08/25 01:37:16;;;;;;;1.42;1.10;;;;;;;;;;5054462;28;20412;-76
2021/08/25 01:39:41;;;;;;;2.80;1.20;;;;;;;;;;5056744;28;20056;-76
2021/08/25 01:42:06;;;;;;;2.85;1.20;;;;;;;;;;5056644;28;20461;-75
2021/08/25 01:44:32;;;;;;;3.58;1.10;;;;;;;;;;5039034;28;20033;-76
2021/08/25 01:46:57;;;;;;;4.43;1.17;;;;;;;;;;5056694;28;20478;-76
2021/08/25 01:49:22;;;;;;;3.00;1.27;;;;;;;;;;5056649;28;20028;-76
2021/08/25 01:51:47;;;;;;;3.25;1.15;;;;;;;;;;5056553;28;20051;-76
2021/08/25 01:54:13;;;;;;;1.58;1.00;;;;;;;;;;5056524;28;20029;-75
2021/08/25 01:56:40;;;;;;;1.88;0.98;;;;;;;;;;5038719;28;20029;-75
2021/08/25 01:59:06;;;;;;;3.45;1.13;;;;;;;;;;5056070;28;20033;-76
2021/08/25 02:01:31;;;;;;;1.83;1.15;;;;;;;;;;5055963;28;20040;-75
2021/08/25 02:03:58;;;;;;;1.70;1.10;;;;;;;;;;5056149;28;20021;-76
2021/08/25 02:06:23;;;;;;;2.00;1.00;;;;;;;;;;5056351;28;20090;-76
2021/08/25 02:08:49;;;;;;;4.63;1.10;;;;;;;;;;5056280;28;20486;-75
2021/08/25 02:11:14;;;;;;;2.65;1.15;;;;;;;;;;5055825;28;20515;-76
2021/08/25 02:13:39;;;;;;;2.88;1.20;;;;;;;;;;5056338;28;20025;-76
2021/08/25 02:16:05;;;;;;;2.55;0.98;;;;;;;;;;5055772;28;20432;-76
2021/08/25 02:18:30;;;;;;;1.92;1.05;;;;;;;;;;5056004;28;20043;-75
2021/08/25 02:20:55;;;;;;;1.08;0.70;;;;;;;;;;5056001;28;20079;-76
2021/08/25 02:23:21;;;;;;;0.88;0.63;;;;;;;;;;5055977;28;20032;-75
2021/08/25 02:25:46;;;;;;;4.03;0.93;;;;;;;;;;5056043;28;20096;-76
2021/08/25 02:28:11;;;;;;;1.90;0.98;;;;;;;;;;5055755;28;20029;-76
2021/08/25 02:30:37;;;;;;;2.22;1.10;;;;;;;;;;5055937;28;20096;-75
2021/08/25 02:33:03;;;;;;;1.90;0.88;;;;;;;;;;5055720;28;20024;-76
2021/08/25 02:35:29;;;;;;;1.65;0.70;;;;;;;;;;5055822;28;20090;-75
2021/08/25 02:37:54;;;;;;;5.18;0.95;;;;;;;;;;5055730;28;20367;-76
2021/08/25 02:40:19;;;;;;;5.18;0.88;;;;;;;;;;5055553;28;20103;-75
2021/08/25 02:42:45;;;;;;;4.57;0.85;;;;;;;;;;5055678;28;20029;-76
2021/08/25 02:45:10;;;;;;;2.58;1.10;;;;;;;;;;5055196;28;20098;-76
2021/08/25 02:47:35;;;;;;;5.88;1.17;;;;;;;;;;5055248;28;20025;-75
2021/08/25 02:50:01;;;;;;;3.55;1.00;;;;;;;;;;5054779;28;20066;-75
2021/08/25 02:52:26;;;;;;;2.58;1.13;;;;;;;;;;5055684;28;20053;-75
2021/08/25 02:54:51;;;;;;;1.85;0.90;;;;;;;;;;5055692;28;20369;-76
2021/08/25 02:57:17;;;;;;;1.40;0.68;;;;;;;;;;5055349;28;20025;-75
2021/08/25 02:59:42;;;;;;;1.58;0.90;;;;;;;;;;5055287;28;20128;-75
2021/08/25 03:02:07;;;;;;;2.13;0.90;;;;;;;;;;5055101;28;20021;-76
2021/08/25 03:04:33;;;;;;;2.00;1.00;;;;;;;;;;5054973;28;20052;-76
2021/08/25 03:06:58;;;;;;;3.00;0.95;;;;;;;;;;5055351;28;20124;-75
2021/08/25 03:09:23;;;;;;;2.92;0.80;;;;;;;;;;5055414;28;20068;-75
2021/08/25 03:11:49;;;;;;;2.33;0.75;;;;;;;;;;5055202;28;20377;-76
2021/08/25 03:14:14;;;;;;;1.27;0.80;;;;;;;;;;5054636;28;20086;-76
2021/08/25 03:16:39;;;;;;;1.65;0.90;;;;;;;;;;5055121;28;20020;-75
2021/08/25 03:19:05;;;;;;;5.35;0.90;;;;;;;;;;5054803;28;20040;-76
2021/08/25 03:21:30;;;;;;;2.13;1.00;;;;;;;;;;5054702;28;20492;-75
2021/08/25 03:23:55;;;;;;;1.98;0.80;;;;;;;;;;5054810;28;20027;-77
2021/08/25 03:26:21;;;;;;;3.72;1.13;;;;;;;;;;5054766;28;20033;-76
2021/08/25 03:28:46;;;;;;;3.95;1.92;;;;;;;;;;5054846;28;20040;-76
2021/08/25 03:31:12;;;;;;;2.88;0.98;;;;;;;;;;5054643;28;20072;-75
2021/08/25 03:33:37;;;;;;;1.52;0.90;;;;;;;;;;5054789;28;20119;-76
2021/08/25 03:36:02;;;;;;;2.25;1.00;;;;;;;;;;5054544;28;20259;-76
2021/08/25 03:38:28;;;;;;;5.13;1.35;;;;;;;;;;5054558;28;20096;-75
2021/08/25 03:40:53;;;;;;;3.30;0.98;;;;;;;;;;5054464;28;20045;-75
2021/08/25 03:43:18;;;;;;;3.42;1.17;;;;;;;;;;5054112;28;20094;-75
2021/08/25 03:45:43;;;;;;;1.67;0.88;;;;;;;;;;5054476;28;20021;-75
2021/08/25 03:48:09;;;;;;;2.67;1.40;;;;;;;;;;5054046;28;20092;-76
2021/08/25 03:50:34;;;;;;;2.97;1.10;;;;;;;;;;5054417;28;20033;-75
2021/08/25 03:52:59;;;;;;;2.55;1.05;;;;;;;;;;5036385;28;20083;-76
2021/08/25 03:55:25;;;;;;;1.55;0.90;;;;;;;;;;5054239;28;20064;-77
2021/08/25 03:57:50;;;;;;;2.75;0.75;;;;;;;;;;5054395;28;20492;-75
2021/08/25 04:00:16;;;;;;;1.58;0.85;;;;;;;;;;5053828;28;20036;-75
2021/08/25 04:02:41;;;;;;;3.92;1.20;;;;;;;;;;5054065;28;20052;-76
2021/08/25 04:05:07;;;;;;;3.53;1.20;;;;;;;;;;5036073;28;20465;-75
2021/08/25 04:07:32;;;;;;;2.70;1.20;;;;;;;;;;5054055;28;20464;-75
2021/08/25 04:09:57;;;;;;;3.47;1.40;;;;;;;;;;5036250;28;20040;-76
2021/08/25 04:12:23;;;;;;;3.08;0.75;;;;;;;;;;5053901;28;20075;-76
2021/08/25 04:14:48;;;;;;;2.95;1.33;;;;;;;;;;5054033;28;20021;-76
2021/08/25 04:17:13;;;;;;;1.75;1.10;;;;;;;;;;5053765;28;20025;-75
2021/08/25 04:19:38;;;;;;;1.85;0.93;;;;;;;;;;5053843;28;20059;-75
2021/08/25 04:22:04;;;;;;;3.25;0.93;;;;;;;;;;5053709;28;20024;-76
2021/08/25 04:24:29;;;;;;;3.05;1.30;;;;;;;;;;5053645;28;20220;-75
2021/08/25 04:26:54;;;;;;;1.52;0.93;;;;;;;;;;5053680;28;20065;-75
2021/08/25 04:29:20;;;;;;;2.35;1.38;;;;;;;;;;5053146;28;20021;-75
2021/08/25 04:31:45;;;;;;;3.85;1.20;;;;;;;;;;5053829;28;20473;-75
2021/08/25 04:34:11;;;;;;;3.55;1.20;;;;;;;;;;5053458;28;20033;-75
2021/08/25 04:36:36;;;;;;;4.10;1.10;;;;;;;;;;5053632;28;20060;-76
2021/08/25 04:39:02;;;;;;;2.03;1.25;;;;;;;;;;5053409;28;20041;-76
2021/08/25 04:41:27;;;;;;;1.35;0.80;;;;;;;;;;5053240;28;20378;-75
2021/08/25 04:43:52;;;;;;;2.30;0.90;;;;;;;;;;5053446;28;20021;-75
2021/08/25 04:46:18;;;;;;;5.63;1.20;;;;;;;;;;5053678;28;20064;-76
2021/08/25 04:48:43;;;;;;;2.35;1.20;;;;;;;;;;5053115;28;20036;-75
2021/08/25 04:51:11;;;;;;;2.05;1.20;;;;;;;;;;5053257;28;20103;-76
2021/08/25 04:53:36;;;;;;;3.45;1.25;;;;;;;;;;5053324;28;20029;-75
2021/08/25 04:56:01;;;;;;;2.78;1.40;;;;;;;;;;5053288;28;20037;-76
2021/08/25 04:58:27;;;;;;;3.58;1.33;;;;;;;;;;5053373;28;20342;-75
2021/08/25 05:00:52;;;;;;;2.08;1.40;;;;;;;;;;5035353;28;20108;-76
2021/08/25 05:03:17;;;;;;;3.83;1.38;;;;;;;;;;5053092;28;20516;-75
2021/08/25 05:05:43;;;;;;;3.10;1.15;;;;;;;;;;5053304;28;20025;-75
2021/08/25 05:08:08;;;;;;;2.05;1.38;;;;;;;;;;5053201;28;20024;-76
2021/08/25 05:10:33;;;;;;;2.92;1.45;;;;;;;;;;5053169;28;20108;-75
2021/08/25 05:12:59;;;;;;;3.03;1.40;;;;;;;;;;5056605;28;20377;-77
2021/08/25 05:15:24;;;;;;;4.32;1.50;;;;;;;;;;5057180;28;20029;-76
2021/08/25 05:17:49;;;;;;;5.10;1.50;;;;;;;;;;5057405;28;20552;-76
2021/08/25 05:20:14;;;;;;;5.45;1.38;;;;;;;;;;5056994;28;20083;-76
2021/08/25 05:22:40;;;;;;;2.17;1.00;;;;;;;;;;5057226;28;20389;-75
2021/08/25 05:25:05;;;;;;;4.18;1.60;;;;;;;;;;5056702;28;20162;-76
2021/08/25 05:27:30;;;;;;;5.75;1.52;;;;;;;;;;5057318;28;20021;-75
2021/08/25 05:29:56;;;;;;;5.28;1.58;;;;;;;;;;5056676;28;20072;-75
2021/08/25 05:32:21;;;;;;;3.00;1.38;;;;;;;;;;5056484;28;20053;-76
2021/08/25 05:34:47;;;;;;;4.68;1.40;;;;;;;;;;5056988;28;20017;-75
2021/08/25 05:37:12;;;;;;;1.90;1.23;;;;;;;;;;5056481;28;20119;-75
2021/08/25 05:39:37;;;;;;;3.97;1.20;;;;;;;;;;5056830;28;20044;-76
2021/08/25 05:42:03;;;;;;;2.72;1.48;;;;;;;;;;5056748;28;20047;-75
2021/08/25 05:44:28;;;;;;;2.38;1.30;;;;;;;;;;5056817;28;20028;-75
2021/08/25 05:46:53;;;;;;;4.57;1.13;;;;;;;;;;5056781;28;20451;-76
2021/08/25 05:49:18;;;;;;;4.00;1.58;;;;;;;;;;5056680;28;20025;-76
2021/08/25 05:51:44;;;;;;;2.63;1.48;;;;;;;;;;5056360;28;20428;-75
2021/08/25 05:54:09;;;;;;;3.10;1.30;;;;;;;;;;5056465;28;20029;-76
2021/08/25 05:56:35;;;;;;;4.43;1.33;;;;;;;;;;5053095;28;20051;-76
2021/08/25 05:59:00;;;;;;;3.30;1.58;;;;;;;;;;5056446;28;20083;-77
2021/08/25 06:01:25;;;;;;;4.45;1.40;;;;;;;;;;5056262;28;20029;-76
2021/08/25 06:03:51;;;;;;;4.65;1.38;;;;;;;;;;5056408;28;20441;-76
2021/08/25 06:06:16;;;;;;;5.22;1.58;;;;;;;;;;5056188;28;20029;-76
2021/08/25 06:08:42;;;;;;;3.25;1.30;;;;;;;;;;5056405;28;20111;-75
2021/08/25 06:11:07;;;;;;;4.00;1.48;;;;;;;;;;5055809;28;20115;-76
2021/08/25 06:13:33;;;;;;;3.00;1.67;;;;;;;;;;5056236;28;20029;-75
2021/08/25 06:15:58;;;;;;;8.30;1.60;;;;;;;;;;5056315;28;20036;-75
2021/08/25 06:18:23;;;;;;;4.38;1.48;;;;;;;;;;5055982;28;20458;-76
2021/08/25 06:20:49;;;;;;;2.85;1.40;;;;;;;;;;5056116;28;20041;-76
2021/08/25 06:23:14;;;;;;;5.15;1.40;;;;;;;;;;5054561;28;20428;-75
2021/08/25 06:25:40;;;;;;;3.00;1.30;;;;;;;;;;5056144;28;20025;-75
2021/08/25 06:28:05;;;;;;;5.97;1.73;;;;;;;;;;5038000;28;20389;-76
2021/08/25 06:30:30;;;;;;;4.18;1.30;;;;;;;;;;5055819;28;20037;-76
2021/08/25 06:32:56;;;;;;;10.40;1.40;;;;;;;;;;5055932;28;20095;-75
2021/08/25 06:35:21;;;;;;;3.45;1.70;;;;;;;;;;5055687;28;20490;-75
2021/08/25 06:37:47;;;;;;;5.22;1.90;;;;;;;;;;5055506;28;20037;-75
2021/08/25 06:40:12;;;;;;;4.18;1.50;;;;;;;;;;5055505;28;20033;-76
2021/08/25 06:42:38;;;;;;;2.88;1.90;;;;;;;;;;5055624;28;20496;-76
2021/08/25 06:45:04;;;;;;;5.95;1.60;;;;;;;;;;5055442;28;20037;-77
2021/08/25 06:47:29;;;;;;;3.45;1.40;;;;;;;;;;5055676;28;20101;-76
2021/08/25 06:49:54;;;;;;;3.33;1.52;;;;;;;;;;5055567;28;20472;-75
2021/08/25 06:52:20;;;;;;;3.30;1.50;;;;;;;;;;5055082;28;20067;-76
2021/08/25 06:54:45;;;;;;;3.17;1.65;;;;;;;;;;5055499;28;20070;-75
2021/08/25 06:57:10;;;;;;;4.00;1.88;;;;;;;;;;5055125;28;20358;-76
2021/08/25 06:59:35;;;;;;;5.13;1.58;;;;;;;;;;5055009;28;20044;-76
2021/08/25 07:02:01;;;;;;;2.92;1.55;;;;;;;;;;5055188;28;20385;-76
2021/08/25 07:04:26;;;;;;;3.28;1.83;;;;;;;;;;5055200;28;20061;-76
2021/08/25 07:06:51;;;;;;;3.70;1.90;;;;;;;;;;5055281;28;20380;-75
2021/08/25 07:09:17;;;;;;;3.30;1.65;;;;;;;;;;5055081;28;20021;-76
2021/08/25 07:11:42;;;;;;;3.08;1.65;;;;;;;;;;5055149;28;20029;-76
2021/08/25 07:14:07;;;;;;;2.88;1.80;;;;;;;;;;5055028;28;20465;-76
2021/08/25 07:16:35;;;;;;;4.68;1.95;;;;;;;;;;5054693;28;20500;-76
2021/08/25 07:19:01;;;;;;;3.42;1.63;;;;;;;;;;5054315;28;20465;-76
2021/08/25 07:21:27;;;;;;;4.32;2.25;;;;;;;;;;5053793;28;20040;-75
2021/08/25 07:23:52;;;;;;;3.08;1.60;;;;;;;;;;5055026;28;20106;-75
2021/08/25 07:26:17;;;;;;;4.32;2.38;;;;;;;;;;5054766;28;20021;-76
2021/08/25 07:28:44;;;;;;;3.33;1.83;;;;;;;;;;5054627;28;20501;-76
2021/08/25 07:31:10;;;;;;;5.30;1.92;;;;;;;;;;5054374;28;20048;-76
2021/08/25 07:33:38;;;;;;;5.03;2.33;;;;;;;;;;5054744;28;20032;-76
2021/08/25 07:36:04;;;;;;;3.35;1.73;;;;;;;;;;5054083;28;20033;-77
2021/08/25 07:38:29;;;;;;;4.00;2.10;;;;;;;;;;5054632;28;20028;-76
2021/08/25 07:40:56;;;;;;;3.50;2.13;;;;;;;;;;5054792;28;20045;-76
2021/08/25 07:43:21;;;;;;;4.05;1.75;;;;;;;;;;5054096;28;20516;-76
2021/08/25 07:45:47;;;;;;;4.30;2.55;;;;;;;;;;5054441;28;20021;-76
2021/08/25 07:48:12;;;;;;;6.22;3.08;;;;;;;;;;5054632;28;20090;-76
2021/08/25 07:50:37;;;;;;;5.93;2.80;;;;;;;;;;5054049;28;20139;-76
2021/08/25 07:53:02;;;;;;;5.60;3.25;;;;;;;;;;5054598;28;20101;-76
2021/08/25 07:55:28;;;;;;;7.10;2.88;;;;;;;;;;5054215;28;20462;-76
2021/08/25 07:57:53;;;;;;;7.22;3.30;;;;;;;;;;5054142;28;20029;-76
2021/08/25 08:00:18;;;;;;;7.20;2.80;;;;;;;;;;5054050;28;20427;-76
2021/08/25 08:02:44;;;;;;;7.95;4.15;;;;;;;;;;5053704;28;20100;-76
2021/08/25 08:05:09;;;;;;;10.45;3.75;;;;;;;;;;5053572;28;20050;-77
2021/08/25 08:07:34;;;;;;;7.32;3.88;;;;;;;;;;5053431;28;20114;-76
2021/08/25 08:10:01;;;;;;;5.90;3.35;;;;;;;;;;5054233;28;20044;-76
2021/08/25 08:12:26;;;;;;;8.60;3.83;;;;;;;;;;5054089;28;20055;-76
2021/08/25 08:14:51;;;;;;;7.00;3.42;;;;;;;;;;5054134;28;20461;-75
2021/08/25 08:17:19;;;;;;;7.72;3.72;;;;;;;;;;5053496;28;20029;-75
2021/08/25 08:19:44;;;;;;;6.40;3.30;;;;;;;;;;5053669;28;20043;-75
2021/08/25 08:22:10;;;;;;;5.25;3.00;;;;;;;;;;5053686;28;20025;-76
2021/08/25 08:24:35;;;;;;;8.00;3.40;;;;;;;;;;5053286;28;20025;-76
2021/08/25 08:27:00;;;;;;;9.40;4.32;;;;;;;;;;5053505;28;20068;-76
2021/08/25 08:29:27;;;;;;;7.63;3.30;;;;;;;;;;5053509;28;20029;-75
2021/08/25 08:31:52;;;;;;;7.50;4.15;;;;;;;;;;5053285;28;20131;-75
2021/08/25 08:34:17;;;;;;;6.18;3.20;;;;;;;;;;5053393;28;20501;-76
2021/08/25 08:36:43;;;;;;;7.18;3.38;;;;;;;;;;5050271;28;20120;-78
2021/08/25 08:39:08;;;;;;;7.70;3.90;;;;;;;;;;5049812;28;20037;-76
2021/08/25 08:41:33;;;;;;;6.40;3.67;;;;;;;;;;5049672;28;20110;-77
2021/08/25 08:43:59;;;;;;;8.07;3.95;;;;;;;;;;5050359;28;20454;-76
2021/08/25 08:46:24;;;;;;;8.90;4.38;;;;;;;;;;5048851;28;20032;-75
2021/08/25 08:48:51;;;;;;;7.95;4.78;;;;;;;;;;5050091;28;20044;-76
2021/08/25 08:51:18;;;;;;;11.02;4.63;;;;;;;;;;5049997;28;20021;-77
2021/08/25 08:53:44;;;;;;;6.82;4.28;;;;;;;;;;5050660;28;20029;-76
2021/08/25 08:56:09;;;;;;;6.20;3.80;;;;;;;;;;5049988;28;20486;-76
2021/08/25 08:58:37;;;;;;;8.30;4.95;;;;;;;;;;5049764;28;20024;-76
2021/08/25 09:01:02;;;;;;;7.80;5.00;;;;;;;;;;5050071;28;20091;-76
2021/08/25 09:03:27;;;;;;;6.57;4.35;;;;;;;;;;5030870;28;20037;-76
2021/08/25 09:05:54;;;;;;;7.22;4.55;;;;;;;;;;5050219;28;20445;-76
2021/08/25 09:08:24;;;;;;;8.38;4.68;;;;;;;;;;5050267;28;20025;-75
2021/08/25 09:10:58;;;;;;;7.88;4.65;;;;;;;;;;5049897;28;20108;-76
2021/08/25 09:13:31;;;;;;;10.85;4.28;;;;;;;;;;5049573;28;20087;-76
2021/08/25 09:15:56;;;;;;;8.85;4.07;;;;;;;;;;5050566;28;20469;-76
2021/08/25 09:18:22;;;;;;;8.23;4.60;;;;;;;;;;5049351;28;20017;-76
2021/08/25 09:20:48;;;;;;;8.55;5.38;;;;;;;;;;5049554;28;20037;-77
2021/08/25 09:23:15;;;;;;;9.98;4.53;;;;;;;;;;5048969;28;20029;-76
2021/08/25 09:25:41;;;;;;;8.85;5.07;;;;;;;;;;5049472;28;20092;-76
2021/08/25 09:28:07;;;;;;;6.50;4.22;;;;;;;;;;5049350;28;20124;-80
2021/08/25 09:30:50;;;;;;;8.15;5.50;;;;;;;;;;5049631;28;20037;-76
2021/08/25 09:33:16;;;;;;;8.90;5.03;;;;;;;;;;5049279;28;20107;-76
2021/08/25 09:35:42;;;;;;;8.48;5.40;;;;;;;;;;5048983;28;20041;-76
2021/08/25 09:38:07;;;;;;;9.07;5.40;;;;;;;;;;5045734;28;20025;-79
2021/08/25 09:40:43;;;;;;;9.43;5.13;;;;;;;;;;5048323;28;20127;-76
2021/08/25 09:43:09;;;;;;;13.25;5.55;;;;;;;;;;5048319;28;20053;-77
2021/08/25 09:45:35;;;;;;;7.47;4.50;;;;;;;;;;5048668;28;20056;-76
2021/08/25 09:48:00;;;;;;;9.98;6.32;;;;;;;;;;5048330;28;20033;-77
2021/08/25 09:50:26;;;;;;;8.38;5.10;;;;;;;;;;5048498;28;20037;-77
2021/08/25 09:52:52;;;;;;;7.25;4.32;;;;;;;;;;5044300;28;20099;-77
2021/08/25 09:55:30;;;;;;;9.13;5.03;;;;;;;;;;5048943;28;20025;-77
2021/08/25 09:57:55;;;;;;;9.05;5.22;;;;;;;;;;5044427;28;20154;-77
2021/08/25 10:00:21;;;;;;;9.18;5.18;;;;;;;;;;5053133;28;20055;-77
2021/08/25 10:02:46;;;;;;;9.52;5.63;;;;;;;;;;5052916;28;20450;-77
2021/08/25 10:05:12;;;;;;;9.95;5.70;;;;;;;;;;5051783;28;20108;-76
2021/08/25 10:07:37;;;;;;;7.93;5.05;;;;;;;;;;5051858;28;20028;-76
2021/08/25 10:10:04;;;;;;;7.60;4.82;;;;;;;;;;5052280;28;20469;-75
2021/08/25 10:12:29;;;;;;;8.15;4.80;;;;;;;;;;5052073;28;20032;-76
2021/08/25 10:14:54;;;;;;;7.95;5.07;;;;;;;;;;5035012;28;20044;-76
2021/08/25 10:17:47;;;;;;;9.02;4.63;;;;;;;;;;5051986;28;20524;-76
2021/08/25 10:20:33;;;;;;;8.10;5.20;;;;;;;;;;5044980;28;20504;-77
2021/08/25 10:22:58;;;;;;;11.88;5.40;;;;;;;;;;5051298;28;20423;-76
2021/08/25 10:25:26;;;;;;;8.30;5.07;;;;;;;;;;5051500;28;20029;-77
2021/08/25 10:28:02;;;;;;;7.90;5.22;;;;;;;;;;5051794;28;20033;-76
2021/08/25 10:30:28;;;;;;;8.32;4.88;;;;;;;;;;5052216;28;20047;-76
2021/08/25 10:32:53;;;;;;;7.03;4.80;;;;;;;;;;5051118;28;20495;-76
2021/08/25 10:35:18;;;;;;;8.80;4.95;;;;;;;;;;5051703;28;20067;-76
2021/08/25 10:37:45;;;;;;;7.38;4.95;;;;;;;;;;5051749;28;20059;-76
2021/08/25 10:40:11;;;;;;;10.02;5.10;;;;;;;;;;5033817;28;20121;-79
2021/08/25 10:42:54;;;;;;;7.40;4.43;;;;;;;;;;5052159;28;20112;-76
2021/08/25 10:45:39;;;;;;;9.45;4.10;;;;;;;;;;5051052;28;20029;-75
2021/08/25 10:48:08;;;;;;;5.97;3.50;;;;;;;;;;5050672;28;20035;-76
2021/08/25 10:50:53;;;;;;;6.57;3.85;;;;;;;;;;5051400;28;20074;-76
2021/08/25 10:53:28;;;;;;;6.28;3.92;;;;;;;;;;5050626;28;20079;-77
2021/08/25 10:56:09;;;;;;;8.43;4.47;;;;;;;;;;5050950;28;20092;-76
2021/08/25 10:58:48;;;;;;;7.13;3.63;;;;;;;;;;5050137;28;20037;-76
2021/08/25 11:01:29;;;;;;;6.28;3.42;;;;;;;;;;5050018;28;20033;-77
2021/08/25 11:03:54;;;;;;;6.70;3.30;;;;;;;;;;5050706;28;20393;-76
2021/08/25 11:06:43;;;;;;;6.05;4.00;;;;;;;;;;5048886;28;20025;-76
2021/08/25 11:09:15;;;;;;;7.47;3.90;;;;;;;;;;5035600;28;20033;-76
2021/08/25 11:11:45;;;;;;;8.13;3.65;;;;;;;;;;5050857;28;20171;-76
2021/08/25 11:14:20;;;;;;;6.43;3.60;;;;;;;;;;5051245;28;20095;-76
2021/08/25 11:16:45;;;;;;;6.25;3.72;;;;;;;;;;5051022;28;20358;-76
2021/08/25 11:19:21;;;;;;;6.75;2.67;;;;;;;;;;5050732;28;20300;-78
2021/08/25 11:21:46;;;;;;;5.55;3.67;;;;;;;;;;5050277;28;20040;-77
2021/08/25 11:24:12;;;;;;;6.25;3.28;;;;;;;;;;5050979;28;20036;-76
2021/08/25 11:26:37;;;;;;;6.35;3.70;;;;;;;;;;5050952;28;20358;-76
2021/08/25 11:29:03;;;;;;;8.68;3.95;;;;;;;;;;5051328;28;20029;-79
2021/08/25 11:31:28;;;;;;;5.68;3.30;;;;;;;;;;5051249;28;20122;-76
2021/08/25 11:33:54;;;;;;;6.82;3.38;;;;;;;;;;5051327;28;20449;-76
2021/08/25 11:36:19;;;;;;;6.97;3.83;;;;;;;;;;5050694;28;20036;-76
2021/08/25 11:38:44;;;;;;;6.30;3.45;;;;;;;;;;5050965;28;20477;-78
2021/08/25 11:41:10;;;;;;;5.43;3.42;;;;;;;;;;5050494;28;20525;-76
2021/08/25 11:43:45;;;;;;;4.75;2.88;;;;;;;;;;5051141;28;20032;-78
2021/08/25 11:46:10;;;;;;;;;;;;;;;;;;5051226;28;20104;-76
2021/08/25 11:48:35;;;;;;;6.05;2.58;;;;;;;;;;5052080;28;19955;-76
2021/08/25 11:51:01;;;;;;;4.13;2.40;;;;;;;;;;5051242;28;20033;-76
2021/08/25 11:53:27;;;;;;;3.55;2.40;;;;;;;;;;5051242;28;20020;-77
2021/08/25 11:55:54;;;;;;;5.40;3.17;;;;;;;;;;5051335;28;20122;-76
2021/08/25 11:58:30;;;;;;;4.50;2.55;;;;;;;;;;5047744;28;20071;-77
2021/08/25 12:00:57;;;;;;;4.25;2.50;;;;;;;;;;5050305;28;20039;-77
2021/08/25 12:03:39;;;;;;;4.00;2.38;;;;;;;;;;5049520;28;20037;-76
2021/08/25 12:06:04;;;;;;;8.40;2.15;;;;;;;;;;5049634;28;20024;-76
2021/08/25 12:08:37;;;;;;;3.30;2.15;;;;;;;;;;5049324;28;20486;-76
2021/08/25 12:11:06;;;;;;;3.50;2.08;;;;;;;;;;5049162;28;20381;-78
2021/08/25 12:13:33;;;;;;;4.30;2.28;;;;;;;;;;5048987;28;20036;-77
2021/08/25 12:15:58;;;;;;;4.65;2.40;;;;;;;;;;5050157;28;20052;-78
2021/08/25 12:18:25;;;;;;;10.95;2.65;;;;;;;;;;5048805;28;20461;-79
2021/08/25 12:20:57;;;;;;;4.25;2.45;;;;;;;;;;5049847;28;20033;-77
2021/08/25 12:23:27;;;;;;;4.38;2.72;;;;;;;;;;5049944;28;20052;-76
2021/08/25 12:25:53;;;;;;;3.92;2.47;;;;;;;;;;5050133;28;20032;-76
2021/08/25 12:28:30;;;;;;;4.47;2.55;;;;;;;;;;5048569;28;20067;-77
2021/08/25 12:31:08;;;;;;;4.35;2.10;;;;;;;;;;5050195;28;20056;-78
2021/08/25 12:33:34;;;;;;;4.40;2.45;;;;;;;;;;5048298;28;20568;-77
2021/08/25 12:36:17;;;;;;;3.50;2.20;;;;;;;;;;5049788;28;20108;-77
2021/08/25 12:38:42;;;;;;;6.53;3.17;;;;;;;;;;5049448;28;20037;-77
2021/08/25 12:41:08;;;;;;;7.03;3.10;;;;;;;;;;5048773;28;20477;-76
2021/08/25 12:43:33;;;;;;;8.32;2.80;;;;;;;;;;5049796;28;20083;-76
2021/08/25 12:45:58;;;;;;;5.55;3.15;;;;;;;;;;5049502;28;20512;-77
2021/08/25 12:48:23;;;;;;;4.78;2.83;;;;;;;;;;5049318;28;20033;-76
2021/08/25 12:50:49;;;;;;;6.40;2.63;;;;;;;;;;5049074;28;20521;-78
2021/08/25 12:53:14;;;;;;;5.88;2.72;;;;;;;;;;5048735;28;20021;-78
2021/08/25 12:55:39;;;;;;;5.53;3.22;;;;;;;;;;5049398;28;20425;-78
2021/08/25 12:58:04;;;;;;;4.65;3.00;;;;;;;;;;5049088;28;20033;-76
2021/08/25 13:00:30;;;;;;;5.50;3.83;;;;;;;;;;5049208;28;20411;-76
2021/08/25 13:02:55;;;;;;;5.78;2.85;;;;;;;;;;5047748;28;20033;-77
2021/08/25 13:05:21;;;;;;;4.63;2.78;;;;;;;;;;5048619;28;20041;-76
2021/08/25 13:07:46;;;;;;;3.88;2.40;;;;;;;;;;5048858;28;20021;-80
2021/08/25 13:10:11;;;;;;;4.95;2.63;;;;;;;;;;5048166;28;20028;-77
2021/08/25 13:12:36;;;;;;;6.25;2.75;;;;;;;;;;5049279;28;20366;-76
2021/08/25 13:15:02;;;;;;;5.63;2.83;;;;;;;;;;5047217;28;20053;-77
2021/08/25 13:17:27;;;;;;;4.38;2.78;;;;;;;;;;5046788;28;20104;-77
2021/08/25 13:19:52;;;;;;;4.38;2.58;;;;;;;;;;5048240;28;20032;-78
2021/08/25 13:22:18;;;;;;;4.78;2.13;;;;;;;;;;5047184;28;20108;-76
2021/08/25 13:24:43;;;;;;;7.55;2.13;;;;;;;;;;5049011;28;20060;-77
2021/08/25 13:27:08;;;;;;;3.83;2.35;;;;;;;;;;5048218;28;20095;-76
2021/08/25 13:29:34;;;;;;;4.18;2.55;;;;;;;;;;5048005;28;20035;-76
2021/08/25 13:32:00;;;;;;;3.70;2.20;;;;;;;;;;5048388;28;20472;-77
2021/08/25 13:34:25;;;;;;;3.70;2.40;;;;;;;;;;5053152;28;20025;-76
2021/08/25 13:36:51;;;;;;;4.43;2.55;;;;;;;;;;5052783;28;20035;-77
2021/08/25 13:39:16;;;;;;;5.65;2.67;;;;;;;;;;5053059;28;20424;-76
2021/08/25 13:41:41;;;;;;;8.02;3.13;;;;;;;;;;5053340;28;20044;-77
2021/08/25 13:44:06;;;;;;;5.32;2.75;;;;;;;;;;5053064;28;20053;-76
2021/08/25 13:46:32;;;;;;;5.72;2.97;;;;;;;;;;5035809;28;20029;-76
2021/08/25 13:48:58;;;;;;;4.30;2.53;;;;;;;;;;5052745;28;20036;-76
2021/08/25 13:51:24;;;;;;;5.20;2.70;;;;;;;;;;5052894;28;20029;-77
2021/08/25 13:53:49;;;;;;;4.70;2.78;;;;;;;;;;5052989;28;20037;-77
2021/08/25 13:56:14;;;;;;;4.40;2.85;;;;;;;;;;5051922;28;20033;-77
2021/08/25 13:58:39;;;;;;;4.38;2.05;;;;;;;;;;5052741;28;20025;-79
2021/08/25 14:01:05;;;;;;;3.55;2.28;;;;;;;;;;5053218;28;20037;-77
2021/08/25 14:03:30;;;;;;;4.30;2.70;;;;;;;;;;5052381;28;20132;-77
2021/08/25 14:05:57;;;;;;;4.78;2.65;;;;;;;;;;5053020;28;20027;-76
2021/08/25 14:08:22;;;;;;;6.80;2.78;;;;;;;;;;5052684;28;20036;-77
2021/08/25 14:10:47;;;;;;;4.63;2.70;;;;;;;;;;5052899;28;20039;-76
2021/08/25 14:13:13;;;;;;;4.78;2.60;;;;;;;;;;5053308;28;20519;-76
2021/08/25 14:15:38;;;;;;;4.63;2.47;;;;;;;;;;5052787;28;20116;-76
2021/08/25 14:18:03;;;;;;;5.32;2.53;;;;;;;;;;5048761;28;20045;-76
2021/08/25 14:20:29;;;;;;;4.65;2.72;;;;;;;;;;5052342;28;20033;-76
2021/08/25 14:22:54;;;;;;;8.70;2.85;;;;;;;;;;5050582;28;20057;-76
2021/08/25 14:25:20;;;;;;;4.55;2.63;;;;;;;;;;5052425;28;20082;-76
2021/08/25 14:27:45;;;;;;;4.65;2.40;;;;;;;;;;5051392;28;20017;-78
2021/08/25 14:30:10;;;;;;;4.88;2.40;;;;;;;;;;5052225;28;20033;-77
2021/08/25 14:32:35;;;;;;;5.18;2.97;;;;;;;;;;5051064;28;20068;-77
2021/08/25 14:35:01;;;;;;;4.55;3.05;;;;;;;;;;5052626;28;20082;-77
2021/08/25 14:37:26;;;;;;;4.70;2.45;;;;;;;;;;5052274;28;20063;-76
2021/08/25 14:39:51;;;;;;;7.25;3.25;;;;;;;;;;5051320;28;20090;-76